sensor_id;sensor_type;location;lat;lon;timestamp;temperature;humidity
23744;DHT22;12052;53.478;10.182;2023-07-29T00:01:30;18.70;99.90
23744;DHT22;12052;53.478;10.182;2023-07-29T00:03:56;18.70;99.90
23744;DHT22;12052;53.478;10.182;2023-07-29T00:06:21;18.60;99.90
23744;DHT22;12052;53.478;10.182;2023-07-29T00:08:47;18.60;99.90
23744;DHT22;12052;53.478;10.182;2023-07-29T00:11:13;18.60;99.90
23744;DHT22;12052;53.478;10.182;2023-07-29T00:13:38;18.50;99.90
23744;DHT22;12052;53.478;10.182;2023-07-29T00:16:04;18.50;99.90
23744;DHT22;12052;53.478;10.182;2023-07-29T00:18:29;18.40;99.90
23744;DHT22;12052;53.478;10.182;2023-07-29T00:20:55;18.40;99.90
23744;DHT22;12052;53.478;10.182;2023-07-29T00:23:21;18.30;99.90
23744;DHT22;12052;53.478;10.182;2023-07-29T00:25:47;18.20;99.90
23744;DHT22;12052;53.478;10.182;2023-07-29T00:28:12;18.20;99.90
23744;DHT22;12052;53.478;10.182;2023-07-29T00:30:38;18.10;99.90
23744;DHT22;12052;53.478;10.182;2023-07-29T00:33:04;18.10;99.90
23744;DHT22;12052;53.478;10.182;2023-07-29T00:35:29;18.10;99.90
23744;DHT22;12052;53.478;10.182;2023-07-29T00:37:55;18.10;99.90
23744;DHT22;12052;53.478;10.182;2023-07-29T00:40:24;18.00;99.90
23744;DHT22;12052;53.478;10.182;2023-07-29T00:42:50;18.10;99.90
23744;DHT22;12052;53.478;10.182;2023-07-29T00:45:16;18.00;99.90
23744;DHT22;12052;53.478;10.182;2023-07-29T00:47:42;18.00;99.90
23744;DHT22;12052;53.478;10.182;2023-07-29T00:50:10;17.90;99.90
23744;DHT22;12052;53.478;10.182;2023-07-29T00:52:37;17.90;99.90
23744;DHT22;12052;53.478;10.182;2023-07-29T00:55:03;17.90;99.90
23744;DHT22;12052;53.478;10.182;2023-07-29T00:57:30;17.80;99.90
23744;DHT22;12052;53.478;10.182;2023-07-29T00:59:56;17.80;99.90
23744;DHT22;12052;53.478;10.182;2023-07-29T01:02:22;17.80;99.90
23744;DHT22;12052;53.478;10.182;2023-07-29T01:04:54;17.80;99.90
23744;DHT22;12052;53.478;10.182;2023-07-29T01:07:35;17.80;99.90
23744;DHT22;12052;53.478;10.182;2023-07-29T01:13:17;17.70;99.90
23744;DHT22;12052;53.478;10.182;2023-07-29T01:16:07;17.70;99.90
23744;DHT22;12052;53.478;10.182;2023-07-29T01:18:36;17.60;99.90
23744;DHT22;12052;53.478;10.182;2023-07-29T01:21:07;17.60;99.90
23744;DHT22;12052;53.478;10.182;2023-07-29T01:23:36;17.70;99.90
23744;DHT22;12052;53.478;10.182;2023-07-29T01:26:02;17.70;99.90
23744;DHT22;12052;53.478;10.182;2023-07-29T01:28:29;17.70;99.90
23744;DHT22;12052;53.478;10.182;2023-07-29T01:31:07;17.70;99.90
23744;DHT22;12052;53.478;10.182;2023-07-29T01:33:39;17.80;99.90
23744;DHT22;12052;53.478;10.182;2023-07-29T01:36:15;17.80;99.90
23744;DHT22;12052;53.478;10.182;2023-07-29T01:38:44;17.90;99.90
23744;DHT22;12052;53.478;10.182;2023-07-29T01:41:11;17.90;99.90
23744;DHT22;12052;53.478;10.182;2023-07-29T01:43:37;17.90;99.90
23744;DHT22;12052;53.478;10.182;2023-07-29T01:46:14;17.90;99.90
23744;DHT22;12052;53.478;10.182;2023-07-29T01:48:40;17.90;99.90
23744;DHT22;12052;53.478;10.182;2023-07-29T01:51:06;17.90;99.90
23744;DHT22;12052;53.478;10.182;2023-07-29T01:53:33;17.90;99.90
23744;DHT22;12052;53.478;10.182;2023-07-29T01:55:58;17.90;99.90
23744;DHT22;12052;53.478;10.182;2023-07-29T01:58:24;18.00;99.90
23744;DHT22;12052;53.478;10.182;2023-07-29T02:00:50;18.00;99.90
23744;DHT22;12052;53.478;10.182;2023-07-29T02:03:15;18.00;99.90
23744;DHT22;12052;53.478;10.182;2023-07-29T02:05:41;18.00;99.90
23744;DHT22;12052;53.478;10.182;2023-07-29T02:08:10;18.00;99.90
23744;DHT22;12052;53.478;10.182;2023-07-29T02:10:36;18.00;99.90
23744;DHT22;12052;53.478;10.182;2023-07-29T02:13:02;18.00;99.90
23744;DHT22;12052;53.478;10.182;2023-07-29T02:15:28;18.00;99.90
23744;DHT22;12052;53.478;10.182;2023-07-29T02:17:54;18.00;99.90
23744;DHT22;12052;53.478;10.182;2023-07-29T02:20:20;18.00;99.90
23744;DHT22;12052;53.478;10.182;2023-07-29T02:22:45;17.90;99.90
23744;DHT22;12052;53.478;10.182;2023-07-29T02:25:11;18.00;99.90
23744;DHT22;12052;53.478;10.182;2023-07-29T02:27:37;17.90;99.90
23744;DHT22;12052;53.478;10.182;2023-07-29T02:30:03;17.90;99.90
23744;DHT22;12052;53.478;10.182;2023-07-29T02:32:28;17.90;99.90
23744;DHT22;12052;53.478;10.182;2023-07-29T02:34:54;17.90;99.90
23744;DHT22;12052;53.478;10.182;2023-07-29T02:37:20;17.90;99.90
23744;DHT22;12052;53.478;10.182;2023-07-29T02:39:45;17.90;99.90
23744;DHT22;12052;53.478;10.182;2023-07-29T02:42:11;17.90;99.90
23744;DHT22;12052;53.478;10.182;2023-07-29T02:44:37;17.90;99.90
23744;DHT22;12052;53.478;10.182;2023-07-29T02:47:02;17.90;99.90
23744;DHT22;12052;53.478;10.182;2023-07-29T02:49:28;17.90;99.90
23744;DHT22;12052;53.478;10.182;2023-07-29T02:51:54;17.90;99.90
23744;DHT22;12052;53.478;10.182;2023-07-29T02:54:20;17.90;99.90
23744;DHT22;12052;53.478;10.182;2023-07-29T02:56:45;17.90;99.90
23744;DHT22;12052;53.478;10.182;2023-07-29T02:59:11;17.80;99.90
23744;DHT22;12052;53.478;10.182;2023-07-29T03:01:36;17.80;99.90
23744;DHT22;12052;53.478;10.182;2023-07-29T03:04:02;17.80;99.90
23744;DHT22;12052;53.478;10.182;2023-07-29T03:06:28;17.70;99.90
23744;DHT22;12052;53.478;10.182;2023-07-29T03:08:54;17.70;99.90
23744;DHT22;12052;53.478;10.182;2023-07-29T03:11:19;17.60;99.90
23744;DHT22;12052;53.478;10.182;2023-07-29T03:13:45;17.60;99.90
23744;DHT22;12052;53.478;10.182;2023-07-29T03:16:13;17.60;99.90
23744;DHT22;12052;53.478;10.182;2023-07-29T03:18:40;17.60;99.90
23744;DHT22;12052;53.478;10.182;2023-07-29T03:21:06;17.60;99.90
23744;DHT22;12052;53.478;10.182;2023-07-29T03:23:32;17.60;99.90
23744;DHT22;12052;53.478;10.182;2023-07-29T03:26:00;17.60;99.90
23744;DHT22;12052;53.478;10.182;2023-07-29T03:28:27;17.60;99.90
23744;DHT22;12052;53.478;10.182;2023-07-29T03:30:54;17.60;99.90
23744;DHT22;12052;53.478;10.182;2023-07-29T03:33:19;17.50;99.90
23744;DHT22;12052;53.478;10.182;2023-07-29T03:35:45;17.50;99.90
23744;DHT22;12052;53.478;10.182;2023-07-29T03:38:11;17.50;99.90
23744;DHT22;12052;53.478;10.182;2023-07-29T03:40:38;17.50;99.90
23744;DHT22;12052;53.478;10.182;2023-07-29T03:43:04;17.50;99.90
23744;DHT22;12052;53.478;10.182;2023-07-29T03:45:29;17.50;99.90
23744;DHT22;12052;53.478;10.182;2023-07-29T03:47:55;17.60;99.90
23744;DHT22;12052;53.478;10.182;2023-07-29T03:50:21;17.50;99.90
23744;DHT22;12052;53.478;10.182;2023-07-29T03:52:46;17.60;99.90
23744;DHT22;12052;53.478;10.182;2023-07-29T03:55:12;17.60;99.90
23744;DHT22;12052;53.478;10.182;2023-07-29T03:57:37;17.60;99.90
23744;DHT22;12052;53.478;10.182;2023-07-29T04:00:03;17.70;99.90
23744;DHT22;12052;53.478;10.182;2023-07-29T04:02:29;17.70;99.90
23744;DHT22;12052;53.478;10.182;2023-07-29T04:04:55;17.70;99.90
23744;DHT22;12052;53.478;10.182;2023-07-29T04:07:20;17.70;99.90
23744;DHT22;12052;53.478;10.182;2023-07-29T04:09:46;17.70;99.90
23744;DHT22;12052;53.478;10.182;2023-07-29T04:12:12;17.70;99.90
23744;DHT22;12052;53.478;10.182;2023-07-29T04:14:37;17.70;99.90
23744;DHT22;12052;53.478;10.182;2023-07-29T04:17:03;17.70;99.90
23744;DHT22;12052;53.478;10.182;2023-07-29T04:19:29;17.70;99.90
23744;DHT22;12052;53.478;10.182;2023-07-29T04:21:54;17.80;99.90
23744;DHT22;12052;53.478;10.182;2023-07-29T04:24:20;17.80;99.90
23744;DHT22;12052;53.478;10.182;2023-07-29T04:26:51;17.80;99.90
23744;DHT22;12052;53.478;10.182;2023-07-29T04:29:17;17.80;99.90
23744;DHT22;12052;53.478;10.182;2023-07-29T04:31:42;17.80;99.90
23744;DHT22;12052;53.478;10.182;2023-07-29T04:34:08;17.80;99.90
23744;DHT22;12052;53.478;10.182;2023-07-29T04:36:34;17.80;99.90
23744;DHT22;12052;53.478;10.182;2023-07-29T04:39:00;17.80;99.90
23744;DHT22;12052;53.478;10.182;2023-07-29T04:41:25;17.80;99.90
23744;DHT22;12052;53.478;10.182;2023-07-29T04:43:51;17.80;99.90
23744;DHT22;12052;53.478;10.182;2023-07-29T04:46:17;17.90;99.90
23744;DHT22;12052;53.478;10.182;2023-07-29T04:48:43;17.90;99.90
23744;DHT22;12052;53.478;10.182;2023-07-29T04:51:09;17.90;99.90
23744;DHT22;12052;53.478;10.182;2023-07-29T04:53:34;17.90;99.90
23744;DHT22;12052;53.478;10.182;2023-07-29T04:56:02;17.90;99.90
23744;DHT22;12052;53.478;10.182;2023-07-29T04:58:28;18.00;99.90
23744;DHT22;12052;53.478;10.182;2023-07-29T05:00:55;18.00;99.90
23744;DHT22;12052;53.478;10.182;2023-07-29T05:03:21;18.00;99.90
23744;DHT22;12052;53.478;10.182;2023-07-29T05:05:46;18.00;99.90
23744;DHT22;12052;53.478;10.182;2023-07-29T05:08:12;18.10;99.90
23744;DHT22;12052;53.478;10.182;2023-07-29T05:10:37;18.10;99.90
23744;DHT22;12052;53.478;10.182;2023-07-29T05:13:03;18.10;99.90
23744;DHT22;12052;53.478;10.182;2023-07-29T05:15:29;18.10;99.90
23744;DHT22;12052;53.478;10.182;2023-07-29T05:17:54;18.10;99.90
23744;DHT22;12052;53.478;10.182;2023-07-29T05:20:20;18.20;99.90
23744;DHT22;12052;53.478;10.182;2023-07-29T05:22:45;18.20;99.90
23744;DHT22;12052;53.478;10.182;2023-07-29T05:25:11;18.20;99.90
23744;DHT22;12052;53.478;10.182;2023-07-29T05:27:36;18.20;99.90
23744;DHT22;12052;53.478;10.182;2023-07-29T05:30:02;18.30;99.90
23744;DHT22;12052;53.478;10.182;2023-07-29T05:32:28;18.30;99.90
23744;DHT22;12052;53.478;10.182;2023-07-29T05:34:55;18.30;99.90
23744;DHT22;12052;53.478;10.182;2023-07-29T05:37:20;18.40;99.90
23744;DHT22;12052;53.478;10.182;2023-07-29T05:39:46;18.40;99.90
23744;DHT22;12052;53.478;10.182;2023-07-29T05:42:11;18.40;99.90
23744;DHT22;12052;53.478;10.182;2023-07-29T05:44:37;18.50;99.90
23744;DHT22;12052;53.478;10.182;2023-07-29T05:47:03;18.50;99.90
23744;DHT22;12052;53.478;10.182;2023-07-29T05:49:28;18.60;99.90
23744;DHT22;12052;53.478;10.182;2023-07-29T05:51:54;18.60;99.90
23744;DHT22;12052;53.478;10.182;2023-07-29T05:54:20;18.70;99.90
23744;DHT22;12052;53.478;10.182;2023-07-29T05:56:45;18.80;99.90
23744;DHT22;12052;53.478;10.182;2023-07-29T05:59:11;19.00;99.90
23744;DHT22;12052;53.478;10.182;2023-07-29T06:01:36;19.00;99.90
23744;DHT22;12052;53.478;10.182;2023-07-29T06:04:02;19.00;99.90
23744;DHT22;12052;53.478;10.182;2023-07-29T06:06:27;19.10;99.90
23744;DHT22;12052;53.478;10.182;2023-07-29T06:08:53;19.20;99.90
23744;DHT22;12052;53.478;10.182;2023-07-29T06:11:19;19.20;99.90
23744;DHT22;12052;53.478;10.182;2023-07-29T06:13:45;19.10;99.90
23744;DHT22;12052;53.478;10.182;2023-07-29T06:16:11;19.10;99.90
23744;DHT22;12052;53.478;10.182;2023-07-29T06:18:36;19.10;99.90
23744;DHT22;12052;53.478;10.182;2023-07-29T06:21:02;19.20;99.90
23744;DHT22;12052;53.478;10.182;2023-07-29T06:23:33;19.10;99.90
23744;DHT22;12052;53.478;10.182;2023-07-29T06:25:58;19.20;99.90
23744;DHT22;12052;53.478;10.182;2023-07-29T06:28:26;19.10;99.90
23744;DHT22;12052;53.478;10.182;2023-07-29T06:30:52;19.10;99.90
23744;DHT22;12052;53.478;10.182;2023-07-29T06:33:19;19.20;99.90
23744;DHT22;12052;53.478;10.182;2023-07-29T06:36:48;19.30;99.90
23744;DHT22;12052;53.478;10.182;2023-07-29T06:40:20;19.40;99.90
23744;DHT22;12052;53.478;10.182;2023-07-29T06:44:05;19.50;99.90
23744;DHT22;12052;53.478;10.182;2023-07-29T06:47:40;19.60;99.90
23744;DHT22;12052;53.478;10.182;2023-07-29T06:54:19;19.40;99.90
23744;DHT22;12052;53.478;10.182;2023-07-29T07:00:54;19.60;99.90
23744;DHT22;12052;53.478;10.182;2023-07-29T07:03:47;19.80;99.90
23744;DHT22;12052;53.478;10.182;2023-07-29T07:06:30;19.90;99.90
23744;DHT22;12052;53.478;10.182;2023-07-29T07:09:55;19.90;99.90
23744;DHT22;12052;53.478;10.182;2023-07-29T07:12:42;20.00;99.90
23744;DHT22;12052;53.478;10.182;2023-07-29T07:15:33;20.00;99.90
23744;DHT22;12052;53.478;10.182;2023-07-29T07:18:13;20.00;99.90
23744;DHT22;12052;53.478;10.182;2023-07-29T07:20:52;20.00;99.90
23744;DHT22;12052;53.478;10.182;2023-07-29T07:24:32;20.00;99.90
23744;DHT22;12052;53.478;10.182;2023-07-29T07:28:00;20.00;99.90
23744;DHT22;12052;53.478;10.182;2023-07-29T07:31:06;20.00;99.90
23744;DHT22;12052;53.478;10.182;2023-07-29T07:33:42;20.10;99.90
23744;DHT22;12052;53.478;10.182;2023-07-29T07:36:50;20.20;99.90
23744;DHT22;12052;53.478;10.182;2023-07-29T07:40:25;20.30;99.90
23744;DHT22;12052;53.478;10.182;2023-07-29T07:43:42;20.30;99.90
23744;DHT22;12052;53.478;10.182;2023-07-29T07:46:13;20.30;99.90
23744;DHT22;12052;53.478;10.182;2023-07-29T07:48:53;20.20;99.90
23744;DHT22;12052;53.478;10.182;2023-07-29T08:26:52;20.80;99.90
23744;DHT22;12052;53.478;10.182;2023-07-29T08:30:11;20.70;99.90
23744;DHT22;12052;53.478;10.182;2023-07-29T08:33:23;20.60;99.90
23744;DHT22;12052;53.478;10.182;2023-07-29T08:40:17;20.50;99.90
23744;DHT22;12052;53.478;10.182;2023-07-29T08:43:11;20.60;99.90
23744;DHT22;12052;53.478;10.182;2023-07-29T08:45:52;20.50;99.90
23744;DHT22;12052;53.478;10.182;2023-07-29T08:48:52;20.40;99.90
23744;DHT22;12052;53.478;10.182;2023-07-29T08:52:36;20.50;99.90
23744;DHT22;12052;53.478;10.182;2023-07-29T08:55:39;20.60;99.90
23744;DHT22;12052;53.478;10.182;2023-07-29T08:59:19;20.70;99.90
23744;DHT22;12052;53.478;10.182;2023-07-29T09:01:58;20.80;99.90
23744;DHT22;12052;53.478;10.182;2023-07-29T09:04:27;20.80;99.90
23744;DHT22;12052;53.478;10.182;2023-07-29T09:07:26;20.80;99.90
23744;DHT22;12052;53.478;10.182;2023-07-29T09:10:15;20.90;99.90
23744;DHT22;12052;53.478;10.182;2023-07-29T09:12:47;20.90;99.90
23744;DHT22;12052;53.478;10.182;2023-07-29T09:15:48;21.00;99.90
23744;DHT22;12052;53.478;10.182;2023-07-29T09:19:12;21.10;99.90
23744;DHT22;12052;53.478;10.182;2023-07-29T09:22:18;21.20;99.90
23744;DHT22;12052;53.478;10.182;2023-07-29T09:25:16;21.40;99.90
23744;DHT22;12052;53.478;10.182;2023-07-29T09:28:22;21.40;99.90
23744;DHT22;12052;53.478;10.182;2023-07-29T09:30:56;21.50;99.90
23744;DHT22;12052;53.478;10.182;2023-07-29T09:33:33;21.50;99.90
23744;DHT22;12052;53.478;10.182;2023-07-29T09:36:13;21.60;99.90
23744;DHT22;12052;53.478;10.182;2023-07-29T09:39:22;21.70;99.90
23744;DHT22;12052;53.478;10.182;2023-07-29T09:42:11;21.80;99.90
23744;DHT22;12052;53.478;10.182;2023-07-29T09:50:51;21.80;99.90
23744;DHT22;12052;53.478;10.182;2023-07-29T09:53:32;21.70;99.90
23744;DHT22;12052;53.478;10.182;2023-07-29T09:56:03;21.70;99.90
23744;DHT22;12052;53.478;10.182;2023-07-29T09:58:44;21.60;99.90
23744;DHT22;12052;53.478;10.182;2023-07-29T10:04:46;21.60;99.90
23744;DHT22;12052;53.478;10.182;2023-07-29T10:07:40;21.60;99.90
23744;DHT22;12052;53.478;10.182;2023-07-29T10:10:11;21.60;99.90
23744;DHT22;12052;53.478;10.182;2023-07-29T10:13:05;21.70;99.90
23744;DHT22;12052;53.478;10.182;2023-07-29T10:16:02;21.60;99.90
23744;DHT22;12052;53.478;10.182;2023-07-29T10:18:55;21.60;99.90
23744;DHT22;12052;53.478;10.182;2023-07-29T10:22:17;21.50;99.90
23744;DHT22;12052;53.478;10.182;2023-07-29T10:25:33;21.60;99.90
23744;DHT22;12052;53.478;10.182;2023-07-29T10:28:32;21.80;99.90
23744;DHT22;12052;53.478;10.182;2023-07-29T10:31:20;21.80;99.90
23744;DHT22;12052;53.478;10.182;2023-07-29T10:34:02;21.80;99.90
23744;DHT22;12052;53.478;10.182;2023-07-29T10:36:38;21.90;99.90
23744;DHT22;12052;53.478;10.182;2023-07-29T10:39:21;22.10;99.90
23744;DHT22;12052;53.478;10.182;2023-07-29T10:45:55;22.30;99.90
23744;DHT22;12052;53.478;10.182;2023-07-29T10:49:00;22.30;99.90
23744;DHT22;12052;53.478;10.182;2023-07-29T10:51:40;22.30;99.90
23744;DHT22;12052;53.478;10.182;2023-07-29T10:54:19;22.10;99.90
23744;DHT22;12052;53.478;10.182;2023-07-29T10:58:13;22.20;99.90
23744;DHT22;12052;53.478;10.182;2023-07-29T11:01:33;22.20;99.90
23744;DHT22;12052;53.478;10.182;2023-07-29T11:04:27;22.40;99.90
23744;DHT22;12052;53.478;10.182;2023-07-29T11:07:28;22.40;99.90
23744;DHT22;12052;53.478;10.182;2023-07-29T11:13:55;22.20;99.90
23744;DHT22;12052;53.478;10.182;2023-07-29T11:17:04;22.30;99.90
23744;DHT22;12052;53.478;10.182;2023-07-29T11:19:48;22.30;99.90
23744;DHT22;12052;53.478;10.182;2023-07-29T11:22:19;22.40;99.90
23744;DHT22;12052;53.478;10.182;2023-07-29T11:24:53;22.40;99.90
23744;DHT22;12052;53.478;10.182;2023-07-29T11:27:44;22.40;99.90
23744;DHT22;12052;53.478;10.182;2023-07-29T11:30:39;22.60;99.90
23744;DHT22;12052;53.478;10.182;2023-07-29T11:33:07;22.80;99.90
23744;DHT22;12052;53.478;10.182;2023-07-29T11:35:46;22.90;99.90
23744;DHT22;12052;53.478;10.182;2023-07-29T11:38:58;22.90;99.90
23744;DHT22;12052;53.478;10.182;2023-07-29T11:42:14;22.90;99.90
23744;DHT22;12052;53.478;10.182;2023-07-29T11:45:09;23.20;99.90
23744;DHT22;12052;53.478;10.182;2023-07-29T11:51:32;23.20;99.90
23744;DHT22;12052;53.478;10.182;2023-07-29T11:54:09;23.10;99.90
23744;DHT22;12052;53.478;10.182;2023-07-29T11:57:15;23.10;99.90
23744;DHT22;12052;53.478;10.182;2023-07-29T11:59:43;23.20;99.90
23744;DHT22;12052;53.478;10.182;2023-07-29T12:02:28;23.50;99.90
23744;DHT22;12052;53.478;10.182;2023-07-29T12:05:02;23.90;99.90
23744;DHT22;12052;53.478;10.182;2023-07-29T12:08:16;24.00;99.90
23744;DHT22;12052;53.478;10.182;2023-07-29T12:11:35;24.10;99.90
23744;DHT22;12052;53.478;10.182;2023-07-29T12:14:17;24.20;99.90
23744;DHT22;12052;53.478;10.182;2023-07-29T12:17:14;24.00;99.90
23744;DHT22;12052;53.478;10.182;2023-07-29T12:20:14;23.70;99.90
23744;DHT22;12052;53.478;10.182;2023-07-29T12:23:10;23.40;99.90
23744;DHT22;12052;53.478;10.182;2023-07-29T12:26:21;23.20;99.90
23744;DHT22;12052;53.478;10.182;2023-07-29T12:29:24;23.20;99.90
23744;DHT22;12052;53.478;10.182;2023-07-29T12:32:24;23.30;99.90
23744;DHT22;12052;53.478;10.182;2023-07-29T12:35:02;23.60;99.90
23744;DHT22;12052;53.478;10.182;2023-07-29T12:38:06;23.90;99.90
23744;DHT22;12052;53.478;10.182;2023-07-29T12:40:45;24.00;99.90
23744;DHT22;12052;53.478;10.182;2023-07-29T12:43:45;24.30;99.90
23744;DHT22;12052;53.478;10.182;2023-07-29T12:46:30;24.40;99.90
23744;DHT22;12052;53.478;10.182;2023-07-29T12:49:16;24.40;99.90
23744;DHT22;12052;53.478;10.182;2023-07-29T12:52:08;24.40;99.90
23744;DHT22;12052;53.478;10.182;2023-07-29T12:54:47;24.60;99.90
23744;DHT22;12052;53.478;10.182;2023-07-29T12:57:50;24.70;99.90
23744;DHT22;12052;53.478;10.182;2023-07-29T13:00:19;24.70;99.90
23744;DHT22;12052;53.478;10.182;2023-07-29T13:02:54;24.80;99.90
23744;DHT22;12052;53.478;10.182;2023-07-29T13:05:22;24.40;99.90
23744;DHT22;12052;53.478;10.182;2023-07-29T13:10:57;24.20;99.90
23744;DHT22;12052;53.478;10.182;2023-07-29T13:13:46;24.10;99.90
23744;DHT22;12052;53.478;10.182;2023-07-29T13:16:16;24.30;99.90
23744;DHT22;12052;53.478;10.182;2023-07-29T13:18:43;24.40;99.90
23744;DHT22;12052;53.478;10.182;2023-07-29T13:21:10;24.30;99.90
23744;DHT22;12052;53.478;10.182;2023-07-29T13:23:40;24.30;99.90
23744;DHT22;12052;53.478;10.182;2023-07-29T13:26:30;24.40;99.90
23744;DHT22;12052;53.478;10.182;2023-07-29T13:29:13;24.50;99.90
23744;DHT22;12052;53.478;10.182;2023-07-29T13:32:03;24.60;99.90
23744;DHT22;12052;53.478;10.182;2023-07-29T13:34:33;24.60;99.90
23744;DHT22;12052;53.478;10.182;2023-07-29T13:37:00;24.50;99.90
23744;DHT22;12052;53.478;10.182;2023-07-29T13:39:33;24.60;99.90
23744;DHT22;12052;53.478;10.182;2023-07-29T13:42:12;24.30;99.90
23744;DHT22;12052;53.478;10.182;2023-07-29T13:45:12;24.30;99.90
23744;DHT22;12052;53.478;10.182;2023-07-29T13:48:04;24.20;99.90
23744;DHT22;12052;53.478;10.182;2023-07-29T13:50:45;24.20;99.90
23744;DHT22;12052;53.478;10.182;2023-07-29T13:53:14;24.10;99.90
23744;DHT22;12052;53.478;10.182;2023-07-29T13:55:49;24.00;99.90
23744;DHT22;12052;53.478;10.182;2023-07-29T13:58:29;23.80;99.90
23744;DHT22;12052;53.478;10.182;2023-07-29T14:01:02;23.80;99.90
23744;DHT22;12052;53.478;10.182;2023-07-29T14:03:56;23.80;99.90
23744;DHT22;12052;53.478;10.182;2023-07-29T14:07:20;23.70;99.90
23744;DHT22;12052;53.478;10.182;2023-07-29T14:09:51;23.70;99.90
23744;DHT22;12052;53.478;10.182;2023-07-29T14:12:41;23.90;99.90
23744;DHT22;12052;53.478;10.182;2023-07-29T14:15:35;23.90;99.90
23744;DHT22;12052;53.478;10.182;2023-07-29T14:18:33;23.80;99.90
23744;DHT22;12052;53.478;10.182;2023-07-29T14:21:00;23.90;99.90
23744;DHT22;12052;53.478;10.182;2023-07-29T14:23:28;24.10;99.90
23744;DHT22;12052;53.478;10.182;2023-07-29T14:25:56;24.20;99.90
23744;DHT22;12052;53.478;10.182;2023-07-29T14:29:00;24.30;99.90
23744;DHT22;12052;53.478;10.182;2023-07-29T14:31:48;24.10;99.90
23744;DHT22;12052;53.478;10.182;2023-07-29T14:34:23;24.10;99.90
23744;DHT22;12052;53.478;10.182;2023-07-29T14:37:15;24.20;99.90
23744;DHT22;12052;53.478;10.182;2023-07-29T14:40:03;24.00;99.90
23744;DHT22;12052;53.478;10.182;2023-07-29T14:42:39;23.90;99.90
23744;DHT22;12052;53.478;10.182;2023-07-29T14:45:23;24.10;99.90
23744;DHT22;12052;53.478;10.182;2023-07-29T14:48:16;24.10;99.90
23744;DHT22;12052;53.478;10.182;2023-07-29T14:51:04;24.10;99.90
23744;DHT22;12052;53.478;10.182;2023-07-29T14:53:56;24.30;99.90
23744;DHT22;12052;53.478;10.182;2023-07-29T14:57:18;24.50;99.90
23744;DHT22;12052;53.478;10.182;2023-07-29T14:59:58;24.70;99.90
23744;DHT22;12052;53.478;10.182;2023-07-29T15:02:28;24.70;99.90
23744;DHT22;12052;53.478;10.182;2023-07-29T15:05:07;24.70;99.90
23744;DHT22;12052;53.478;10.182;2023-07-29T15:08:09;24.80;99.90
23744;DHT22;12052;53.478;10.182;2023-07-29T15:10:39;24.70;99.90
23744;DHT22;12052;53.478;10.182;2023-07-29T15:13:26;24.70;99.90
23744;DHT22;12052;53.478;10.182;2023-07-29T15:16:25;24.60;99.90
23744;DHT22;12052;53.478;10.182;2023-07-29T15:19:03;24.50;99.90
23744;DHT22;12052;53.478;10.182;2023-07-29T15:22:02;24.70;99.90
23744;DHT22;12052;53.478;10.182;2023-07-29T15:24:42;24.70;99.90
23744;DHT22;12052;53.478;10.182;2023-07-29T15:27:13;24.70;99.90
23744;DHT22;12052;53.478;10.182;2023-07-29T15:29:49;24.80;99.90
23744;DHT22;12052;53.478;10.182;2023-07-29T15:33:21;24.80;99.90
23744;DHT22;12052;53.478;10.182;2023-07-29T15:36:37;24.70;99.90
23744;DHT22;12052;53.478;10.182;2023-07-29T15:39:32;24.60;99.90
23744;DHT22;12052;53.478;10.182;2023-07-29T15:42:09;24.60;99.90
23744;DHT22;12052;53.478;10.182;2023-07-29T15:44:54;24.70;99.90
23744;DHT22;12052;53.478;10.182;2023-07-29T15:47:37;24.80;99.90
23744;DHT22;12052;53.478;10.182;2023-07-29T15:50:07;24.80;99.90
23744;DHT22;12052;53.478;10.182;2023-07-29T15:52:52;24.90;99.90
23744;DHT22;12052;53.478;10.182;2023-07-29T15:55:22;24.90;99.90
23744;DHT22;12052;53.478;10.182;2023-07-29T15:58:19;24.90;99.90
23744;DHT22;12052;53.478;10.182;2023-07-29T16:00:54;24.60;99.90
23744;DHT22;12052;53.478;10.182;2023-07-29T16:03:47;24.50;99.90
23744;DHT22;12052;53.478;10.182;2023-07-29T16:06:57;24.40;99.90
23744;DHT22;12052;53.478;10.182;2023-07-29T16:10:11;24.10;99.90
23744;DHT22;12052;53.478;10.182;2023-07-29T16:12:45;23.90;99.90
23744;DHT22;12052;53.478;10.182;2023-07-29T16:15:36;23.70;99.90
23744;DHT22;12052;53.478;10.182;2023-07-29T16:18:06;23.60;99.90
23744;DHT22;12052;53.478;10.182;2023-07-29T16:20:57;23.50;99.90
23744;DHT22;12052;53.478;10.182;2023-07-29T16:24:01;23.40;99.90
23744;DHT22;12052;53.478;10.182;2023-07-29T16:26:42;23.30;99.90
23744;DHT22;12052;53.478;10.182;2023-07-29T16:29:17;23.20;99.90
23744;DHT22;12052;53.478;10.182;2023-07-29T16:31:55;23.10;99.90
23744;DHT22;12052;53.478;10.182;2023-07-29T16:35:11;22.80;99.90
23744;DHT22;12052;53.478;10.182;2023-07-29T16:37:48;22.30;99.90
23744;DHT22;12052;53.478;10.182;2023-07-29T16:41:03;21.80;99.90
23744;DHT22;12052;53.478;10.182;2023-07-29T16:43:41;21.40;99.90
23744;DHT22;12052;53.478;10.182;2023-07-29T16:46:57;21.10;99.90
23744;DHT22;12052;53.478;10.182;2023-07-29T16:49:32;20.70;99.90
23744;DHT22;12052;53.478;10.182;2023-07-29T16:52:13;20.10;99.90
23744;DHT22;12052;53.478;10.182;2023-07-29T16:54:44;19.50;99.90
23744;DHT22;12052;53.478;10.182;2023-07-29T16:57:13;18.90;99.90
23744;DHT22;12052;53.478;10.182;2023-07-29T17:00:12;18.70;99.90
23744;DHT22;12052;53.478;10.182;2023-07-29T17:02:55;18.40;99.90
23744;DHT22;12052;53.478;10.182;2023-07-29T17:05:48;18.30;99.90
23744;DHT22;12052;53.478;10.182;2023-07-29T17:08:27;18.30;99.90
23744;DHT22;12052;53.478;10.182;2023-07-29T17:11:06;18.40;99.90
23744;DHT22;12052;53.478;10.182;2023-07-29T17:13:53;18.40;99.90
23744;DHT22;12052;53.478;10.182;2023-07-29T17:16:41;18.50;99.90
23744;DHT22;12052;53.478;10.182;2023-07-29T17:19:14;18.60;99.90
23744;DHT22;12052;53.478;10.182;2023-07-29T17:22:11;18.70;99.90
23744;DHT22;12052;53.478;10.182;2023-07-29T17:24:43;18.70;99.90
23744;DHT22;12052;53.478;10.182;2023-07-29T17:27:45;18.70;99.90
23744;DHT22;12052;53.478;10.182;2023-07-29T17:30:25;18.70;99.90
23744;DHT22;12052;53.478;10.182;2023-07-29T17:33:23;18.60;99.90
23744;DHT22;12052;53.478;10.182;2023-07-29T17:35:58;18.50;99.90
23744;DHT22;12052;53.478;10.182;2023-07-29T17:38:30;18.50;99.90
23744;DHT22;12052;53.478;10.182;2023-07-29T17:41:16;18.40;99.90
23744;DHT22;12052;53.478;10.182;2023-07-29T17:43:49;18.30;99.90
23744;DHT22;12052;53.478;10.182;2023-07-29T17:46:24;18.30;99.90
23744;DHT22;12052;53.478;10.182;2023-07-29T17:49:02;18.20;99.90